Royal Slope, Washington
Current Conditions -  °F | °C
As of 8:52 AM on Thursday 30 Oct 2014 (Local Time) from KMWH Reporting Station
Overcast Overcast  
Wind Chill: 51°   Ceiling: 8000
Heat Index: 51°   Visibility: 10mi
Dew Point: 48°   Wind: 3mph
Humidity: 89%   Direction: 350°N
Pressure: 30.08"   Gusts: NA
Location:  46.7797°N, 119.403°W
Report Text: KMWH 301552Z 35003KT 10SM FEW050 OVC080 11/09 A3008 RMK AO2 SLP189 T01060089
Loading
Personal Weather Stations






























Interactive Weather Map
Tropical Storm Tracking
New forecast layout! Learn more

10-Day Weather Forecast

Advertisements
Track Severe Weather on mobile